Hopkins, Michigan
Current Conditions -  °F | °C
As of 12:53 AM on Wednesday 22 Oct 2014 (Local Time) from KBIV Reporting Station
Clear Clear  
Wind Chill: 36°   Ceiling: Unl
Heat Index: 40°   Visibility: 10mi
Dew Point: 35°   Wind: 6mph
Humidity: 83%   Direction: 80°E
Pressure: 30.28"   Gusts: NA
Location:  42.62°N, 85.76°W
Report Text: KBIV 220453Z AUTO 08005KT 10SM CLR 04/02 A3028 RMK AO2 SLP257 T00440017 401220039
Loading
Personal Weather Stations






























Interactive Weather Map
Tropical Storm Tracking
New forecast layout! Learn more

10-Day Weather Forecast

Advertisements
Track Severe Weather on mobile